EDT,Max TemperatureF,Mean TemperatureF,Min TemperatureF,Max Dew PointF,MeanDew PointF,Min DewpointF,Max Humidity, Mean Humidity, Min Humidity, Max Sea Level PressureIn, Mean Sea Level PressureIn, Min Sea Level PressureIn, Max VisibilityMiles, Mean VisibilityMiles, Min VisibilityMiles, Max Wind SpeedMPH, Mean Wind SpeedMPH, Max Gust SpeedMPH,PrecipitationIn, CloudCover, Events, WindDirDegrees
2013-9-1,78,70,62,68,64,61,100,88,69,29.89,29.86,29.81,10,7,0,9,3,,0.05,6,Thunderstorm,163
2013-9-2,75,68,60,68,64,55,100,88,77,29.87,29.82,29.79,10,6,0,16,7,16,0.20,7,Thunderstorm,249
2013-9-3,60,56,53,55,54,52,100,93,77,30.04,29.93,29.85,10,8,0,15,7,20,0.04,7,,273
2013-9-4,71,61,51,57,53,50,100,77,46,30.09,30.06,30.03,10,8,0,17,8,22,0.00,4,,242
2013-9-5,62,55,48,59,46,37,94,67,48,30.25,30.15,30.04,10,10,10,15,8,17,0.03,3,,329
2013-9-6,64,52,41,46,41,37,100,68,40,30.30,30.24,30.15,10,10,1,10,3,,0.00,0,,193
2013-9-7,69,58,46,57,51,43,100,82,53,30.15,30.05,29.95,10,8,0,12,4,,0.19,4,,188
2013-9-8,64,58,50,63,54,45,100,81,55,30.13,30.03,29.93,10,8,0,14,8,18,0.10,4,,355
2013-9-9,73,58,44,63,53,43,100,83,65,30.14,30.10,30.05,10,9,2,14,7,17,0.12,3,,166
2013-9-10,86,73,60,73,69,61,100,86,66,30.14,30.08,30.02,10,7,2,17,9,22,0.00,2,,201
2013-9-11,84,78,69,73,70,64,100,80,62,30.15,30.10,30.01,10,8,1,23,8,34,0.00,1,Thunderstorm,208
2013-9-12,68,62,57,66,62,50,100,90,77,30.04,29.90,29.81,10,8,0,17,7,24,0.16,5,,260
2013-9-13,57,52,46,54,46,41,94,84,71,30.04,29.93,29.82,10,10,8,13,8,20,0.10,8,,341
2013-9-14,57,50,42,43,38,34,87,67,44,30.16,30.11,30.03,10,10,8,13,5,,0.00,3,,324
2013-9-15,60,50,41,50,43,37,100,76,55,30.19,30.14,30.09,10,10,10,9,5,,0.00,2,,210
2013-9-16,55,48,41,54,47,37,94,89,76,30.35,30.21,30.10,10,8,0,12,5,16,0.14,6,,338
2013-9-17,62,48,33,43,37,30,93,71,39,30.45,30.37,30.30,10,9,0,10,4,,0.00,0,,129
2013-9-18,69,56,42,52,43,36,82,64,46,30.29,30.22,30.13,10,10,10,9,7,16,0.00,0,,192
2013-9-19,71,58,46,57,51,45,93,77,53,30.17,30.12,30.05,10,10,8,10,6,,0.00,2,,185
2013-9-20,73,60,46,64,60,52,100,84,73,30.07,29.97,29.84,10,8,3,17,8,20,0.00,4,,182
2013-9-21,66,57,48,63,57,46,100,92,82,29.84,29.75,29.67,10,8,2,17,7,21,1.04,7,,212
2013-9-22,51,45,39,46,43,39,100,87,76,30.04,29.91,29.80,10,10,7,13,7,17,0.01,8,,325
2013-9-23,53,46,39,41,39,37,100,82,58,30.15,30.11,30.04,10,10,10,12,4,,0.00,5,,349
2013-9-24,62,50,37,48,42,34,100,81,55,30.15,30.09,30.01,10,8,0,10,3,,0.00,1,,341
2013-9-25,68,52,35,52,45,39,100,76,45,30.03,30.00,29.96,10,9,1,9,3,,0.00,0,,31
2013-9-26,66,52,37,52,46,37,100,74,52,30.16,30.08,30.01,10,10,9,12,4,,0.00,0,,45
2013-9-27,66,54,42,54,49,43,100,76,56,30.26,30.22,30.16,10,10,10,8,5,,0.00,0,,54
2013-9-28,69,58,48,54,49,46,94,75,52,30.30,30.25,30.18,10,10,0,13,4,17,0.00,1,,159
2013-9-29,69,58,46,54,50,45,100,75,56,30.18,30.10,30.04,10,10,10,13,7,18,0.00,3,,181
2013-9-30,68,60,51,57,53,48,94,79,64,30.05,30.03,30.01,10,10,10,13,6,17,0.00,5,,196